Time;durP1;ratioP1;P1;durP2;ratioP2;P2;SDS_P1;SDS_P2;PMS_P1;PMS_P2;Temp;Humidity;BMP_temperature;BMP_pressure;BME280_temperature;BME280_humidity;BME280_pressure;Samples;Min_cycle;Max_cycle;Signal;HPM_P1;HPM_P2
2021/07/07 00:00:00;;;;;;;1.77;1.60;;;18.30;99.90;;;;;;5051839;28;20209;-60
2021/07/07 00:02:27;;;;;;;2.33;1.40;;;18.20;99.90;;;;;;5051788;28;20241;-60
2021/07/07 00:04:54;;;;;;;2.40;1.52;;;18.20;99.90;;;;;;5052131;28;20217;-60
2021/07/07 00:07:21;;;;;;;1.80;1.42;;;18.30;99.90;;;;;;5051841;28;20206;-61
2021/07/07 00:09:48;;;;;;;2.40;1.73;;;18.40;99.90;;;;;;5051774;28;20335;-61
2021/07/07 00:12:14;;;;;;;6.20;1.90;;;18.40;99.90;;;;;;5051859;28;20225;-60
2021/07/07 00:14:42;;;;;;;2.88;1.50;;;18.60;99.90;;;;;;5051989;28;20207;-61
2021/07/07 00:17:09;;;;;;;2.45;1.63;;;18.60;99.90;;;;;;5052562;28;20212;-60
2021/07/07 00:19:36;;;;;;;4.30;1.80;;;18.60;99.90;;;;;;5052103;28;20275;-62
2021/07/07 00:22:03;;;;;;;1.98;1.58;;;18.80;99.90;;;;;;5051788;28;20229;-60
2021/07/07 00:24:30;;;;;;;3.22;1.70;;;18.80;99.90;;;;;;5051568;28;20248;-61
2021/07/07 00:26:56;;;;;;;3.10;1.52;;;18.90;99.90;;;;;;5051650;28;20213;-61
2021/07/07 00:29:23;;;;;;;3.50;2.13;;;19.10;99.90;;;;;;5051438;28;20212;-61
2021/07/07 00:31:51;;;;;;;3.45;2.00;;;18.90;99.90;;;;;;5051590;28;20234;-61
2021/07/07 00:34:18;;;;;;;3.05;1.67;;;18.90;99.90;;;;;;5051585;28;20217;-61
2021/07/07 00:36:45;;;;;;;2.25;1.75;;;18.90;99.90;;;;;;5051297;28;20669;-61
2021/07/07 00:39:11;;;;;;;2.28;1.52;;;18.90;99.90;;;;;;5050743;28;20210;-60
2021/07/07 00:41:38;;;;;;;5.20;1.70;;;18.90;99.90;;;;;;5051125;28;20229;-61
2021/07/07 00:44:05;;;;;;;4.60;1.73;;;18.90;99.90;;;;;;5050829;28;20244;-61
2021/07/07 00:46:32;;;;;;;4.60;1.50;;;18.90;99.90;;;;;;5051195;28;20561;-61
2021/07/07 00:48:59;;;;;;;3.47;1.55;;;18.90;99.90;;;;;;5051039;28;20201;-61
2021/07/07 00:51:26;;;;;;;2.33;1.50;;;18.90;99.90;;;;;;5051013;28;20226;-60
2021/07/07 00:53:56;;;;;;;2.33;1.40;;;18.80;99.90;;;;;;5050911;28;20212;-61
2021/07/07 00:56:23;;;;;;;5.57;1.50;;;18.70;99.90;;;;;;5050989;28;20229;-61
2021/07/07 00:58:53;;;;;;;3.45;1.50;;;18.80;99.90;;;;;;5050954;28;20263;-61
2021/07/07 01:01:20;;;;;;;2.13;1.50;;;18.80;99.90;;;;;;5051014;28;20233;-61
2021/07/07 01:03:47;;;;;;;1.98;1.45;;;18.80;99.90;;;;;;5050884;28;20229;-61
2021/07/07 01:06:15;;;;;;;3.50;1.45;;;18.90;99.90;;;;;;5051401;28;20206;-61
2021/07/07 01:08:41;;;;;;;2.50;1.40;;;18.90;99.90;;;;;;5050701;28;20205;-61
2021/07/07 01:11:08;;;;;;;1.88;1.50;;;18.90;99.90;;;;;;5050644;28;20234;-60
2021/07/07 01:13:35;;;;;;;5.13;1.70;;;18.90;99.90;;;;;;5050753;28;20213;-60
2021/07/07 01:16:04;;;;;;;3.45;1.60;;;18.90;99.90;;;;;;5050928;28;20216;-60
2021/07/07 01:18:31;;;;;;;3.40;1.80;;;18.90;99.90;;;;;;5050687;28;20213;-61
2021/07/07 01:20:58;;;;;;;4.05;2.05;;;18.90;99.90;;;;;;5050627;28;20738;-60
2021/07/07 01:23:26;;;;;;;2.83;1.67;;;18.80;99.90;;;;;;5050584;28;20283;-60
2021/07/07 01:25:53;;;;;;;3.03;1.48;;;18.70;99.90;;;;;;5051017;28;20216;-60
2021/07/07 01:28:21;;;;;;;3.75;1.40;;;18.70;99.90;;;;;;5050694;28;20210;-59
2021/07/07 01:30:48;;;;;;;2.22;1.30;;;18.80;99.90;;;;;;5050880;28;20233;-60
2021/07/07 01:33:15;;;;;;;2.80;1.50;;;18.80;99.90;;;;;;5050954;28;20398;-60
2021/07/07 01:35:41;;;;;;;4.85;1.60;;;18.80;99.90;;;;;;5050591;28;20212;-60
2021/07/07 01:38:08;;;;;;;2.53;1.70;;;18.80;99.90;;;;;;5050605;28;20209;-59
2021/07/07 01:40:37;;;;;;;2.92;1.70;;;18.80;99.90;;;;;;5051352;28;20213;-60
2021/07/07 01:43:03;;;;;;;3.05;1.40;;;18.90;99.90;;;;;;5050983;28;20241;-60
2021/07/07 01:45:30;;;;;;;2.30;1.67;;;18.80;99.90;;;;;;5050867;28;20216;-60
2021/07/07 01:47:57;;;;;;;6.43;2.00;;;18.80;99.90;;;;;;5050605;28;20674;-60
2021/07/07 01:50:25;;;;;;;3.78;1.92;;;18.80;99.90;;;;;;5051420;28;20689;-60
2021/07/07 01:52:52;;;;;;;2.70;1.80;;;18.80;99.90;;;;;;5054473;28;20222;-61
2021/07/07 01:55:22;;;;;;;5.72;1.60;;;18.80;99.90;;;;;;5054544;28;20210;-59
2021/07/07 01:57:50;;;;;;;3.90;1.50;;;18.80;99.90;;;;;;5054257;28;20260;-60
2021/07/07 02:00:19;;;;;;;4.03;1.65;;;18.80;99.90;;;;;;5054312;28;20700;-60
2021/07/07 02:02:47;;;;;;;2.65;1.92;;;18.70;99.90;;;;;;5054055;28;20229;-60
2021/07/07 02:05:15;;;;;;;4.57;1.42;;;18.70;99.90;;;;;;5053979;28;20210;-60
2021/07/07 02:07:43;;;;;;;3.08;1.90;;;18.60;99.90;;;;;;5054411;28;20297;-60
2021/07/07 02:10:12;;;;;;;3.58;1.80;;;18.50;99.90;;;;;;5054182;28;20206;-60
2021/07/07 02:12:39;;;;;;;3.25;1.55;;;18.40;99.90;;;;;;5054001;28;20226;-60
2021/07/07 02:15:10;;;;;;;3.20;1.70;;;18.20;99.90;;;;;;5054312;28;20229;-60
2021/07/07 02:17:37;;;;;;;4.60;1.45;;;18.20;99.90;;;;;;5053820;28;20673;-61
2021/07/07 02:20:07;;;;;;;2.75;1.67;;;18.20;99.90;;;;;;5054073;28;20209;-60
2021/07/07 02:22:33;;;;;;;4.72;1.70;;;18.20;99.90;;;;;;5053795;28;20241;-60
2021/07/07 02:25:00;;;;;;;4.50;2.13;;;18.40;99.90;;;;;;5053615;28;20213;-60
2021/07/07 02:27:27;;;;;;;7.57;2.60;;;18.40;99.90;;;;;;5053858;28;20622;-60
2021/07/07 02:29:53;;;;;;;6.38;2.50;;;18.50;99.90;;;;;;5053714;28;20201;-60
2021/07/07 02:32:22;;;;;;;5.25;2.20;;;18.40;99.90;;;;;;5053474;28;20244;-60
2021/07/07 02:34:48;;;;;;;3.80;2.45;;;18.30;99.90;;;;;;5053667;28;20201;-60
2021/07/07 02:37:15;;;;;;;7.00;2.30;;;18.30;99.90;;;;;;5053535;28;20213;-60
2021/07/07 02:39:42;;;;;;;4.85;2.55;;;18.30;99.90;;;;;;5053858;28;20205;-59
2021/07/07 02:42:08;;;;;;;3.63;2.22;;;18.40;99.90;;;;;;5053546;28;20229;-60
2021/07/07 02:44:35;;;;;;;4.43;2.40;;;18.50;99.90;;;;;;5053701;28;20717;-60
2021/07/07 02:47:02;;;;;;;8.70;2.88;;;18.50;99.90;;;;;;5053712;28;20209;-60
2021/07/07 02:49:30;;;;;;;7.22;2.28;;;18.50;99.90;;;;;;5053525;28;20209;-60
2021/07/07 02:51:57;;;;;;;3.55;2.17;;;18.50;99.90;;;;;;5053579;28;20228;-60
2021/07/07 02:54:23;;;;;;;2.53;1.98;;;18.40;99.90;;;;;;5053552;28;20197;-60
2021/07/07 02:56:50;;;;;;;4.40;2.58;;;18.40;99.90;;;;;;5053302;28;20214;-59
2021/07/07 02:59:16;;;;;;;5.57;2.30;;;18.40;99.90;;;;;;5053046;28;20201;-60
2021/07/07 03:01:43;;;;;;;4.93;2.25;;;18.40;99.90;;;;;;5053024;28;20221;-60
2021/07/07 03:04:10;;;;;;;5.45;3.15;;;18.40;99.90;;;;;;5053314;28;20746;-60
2021/07/07 03:06:38;;;;;;;3.92;2.63;;;18.40;99.90;;;;;;5053296;28;20209;-60
2021/07/07 03:09:05;;;;;;;6.28;3.80;;;18.40;99.90;;;;;;5052997;28;20202;-60
2021/07/07 03:11:31;;;;;;;3.88;2.70;;;18.50;99.90;;;;;;5052838;28;20253;-60
2021/07/07 03:13:58;;;;;;;4.47;2.60;;;18.50;99.90;;;;;;5053250;28;20206;-59
2021/07/07 03:16:25;;;;;;;7.13;2.55;;;18.70;99.90;;;;;;5053363;28;20206;-60
2021/07/07 03:18:52;;;;;;;2.58;2.20;;;18.70;99.90;;;;;;5052605;28;20739;-60
2021/07/07 03:21:18;;;;;;;4.10;2.60;;;18.70;99.90;;;;;;5052972;28;20808;-59
2021/07/07 03:23:47;;;;;;;4.10;2.42;;;18.70;99.90;;;;;;5052838;28;20291;-60
2021/07/07 03:26:14;;;;;;;3.70;2.30;;;18.70;99.90;;;;;;5052483;28;20577;-60
2021/07/07 03:28:41;;;;;;;5.05;2.30;;;18.60;99.90;;;;;;5052773;28;20259;-60
2021/07/07 03:31:08;;;;;;;6.90;2.03;;;18.60;99.90;;;;;;5052368;28;20740;-60
2021/07/07 03:33:34;;;;;;;2.83;2.00;;;18.50;99.90;;;;;;5052174;28;20669;-60
2021/07/07 03:36:01;;;;;;;4.10;2.20;;;18.30;99.90;;;;;;5052696;28;20212;-60
2021/07/07 03:38:28;;;;;;;4.53;2.60;;;18.10;99.90;;;;;;5052355;28;20206;-59
2021/07/07 03:40:56;;;;;;;3.05;2.40;;;18.00;99.90;;;;;;5052195;28;20205;-60
2021/07/07 03:43:22;;;;;;;4.75;1.85;;;18.10;99.90;;;;;;5052666;28;20233;-59
2021/07/07 03:45:49;;;;;;;2.17;1.98;;;18.10;99.90;;;;;;5052500;28;20205;-60
2021/07/07 03:48:16;;;;;;;4.80;2.17;;;18.10;99.90;;;;;;5052204;28;20209;-59
2021/07/07 03:50:43;;;;;;;5.03;2.55;;;17.90;99.90;;;;;;5052203;28;20260;-60
2021/07/07 03:53:09;;;;;;;12.57;2.42;;;17.70;99.90;;;;;;5052234;28;20236;-60
2021/07/07 03:55:37;;;;;;;4.82;2.45;;;17.50;99.90;;;;;;5051865;28;20696;-60
2021/07/07 03:58:05;;;;;;;3.63;2.00;;;17.40;99.90;;;;;;5051994;28;20209;-59
2021/07/07 04:00:32;;;;;;;2.35;2.10;;;17.20;99.90;;;;;;5052387;28;20210;-60
2021/07/07 04:03:00;;;;;;;2.97;2.42;;;17.10;99.90;;;;;;5051996;28;20225;-59
2021/07/07 04:05:27;;;;;;;5.65;3.05;;;17.20;99.90;;;;;;5051986;28;20202;-60
2021/07/07 04:07:54;;;;;;;5.53;2.50;;;17.20;99.90;;;;;;5051815;28;20209;-59
2021/07/07 04:10:22;;;;;;;5.17;3.17;;;17.40;99.90;;;;;;5051882;28;20210;-59
2021/07/07 04:12:49;;;;;;;4.30;3.22;;;17.50;99.90;;;;;;5051331;28;20233;-59
2021/07/07 04:15:19;;;;;;;6.22;4.00;;;17.60;99.90;;;;;;5051539;28;20244;-59
2021/07/07 04:17:46;;;;;;;5.15;2.50;;;17.60;99.90;;;;;;5051645;28;20658;-59
2021/07/07 04:20:15;;;;;;;3.22;2.10;;;17.60;99.90;;;;;;5051847;28;20220;-60
2021/07/07 04:22:42;;;;;;;3.33;2.88;;;17.60;99.90;;;;;;5051364;28;20244;-60
2021/07/07 04:25:10;;;;;;;5.75;2.92;;;17.60;99.90;;;;;;5051428;28;20252;-60
2021/07/07 04:27:38;;;;;;;5.40;3.90;;;17.50;99.90;;;;;;5051663;28;20209;-60
2021/07/07 04:30:07;;;;;;;3.92;2.38;;;17.50;99.90;;;;;;5051939;28;20232;-60
2021/07/07 04:32:35;;;;;;;8.10;6.55;;;17.50;99.90;;;;;;5051380;28;20229;-60
2021/07/07 04:35:04;;;;;;;6.03;2.83;;;17.60;99.90;;;;;;5051200;28;20205;-59
2021/07/07 04:37:31;;;;;;;3.03;2.60;;;17.80;99.90;;;;;;5051448;28;20276;-60
2021/07/07 04:39:58;;;;;;;3.50;2.28;;;17.70;99.90;;;;;;5051332;28;20209;-60
2021/07/07 04:42:25;;;;;;;3.70;2.97;;;17.70;99.90;;;;;;5051369;28;20229;-60
2021/07/07 04:44:51;;;;;;;7.70;6.73;;;17.80;99.90;;;;;;5050986;28;20221;-60
2021/07/07 04:47:18;;;;;;;6.97;3.08;;;17.80;99.90;;;;;;5051104;28;20210;-60
2021/07/07 04:49:46;;;;;;;4.87;3.33;;;17.90;99.90;;;;;;5050811;28;20201;-60
2021/07/07 04:52:13;;;;;;;2.30;2.10;;;17.90;99.90;;;;;;5051063;28;20228;-60
2021/07/07 04:54:39;;;;;;;2.72;2.20;;;17.90;99.90;;;;;;5050930;28;20210;-60
2021/07/07 04:57:06;;;;;;;7.15;5.45;;;17.90;99.90;;;;;;5051495;28;20205;-60
2021/07/07 04:59:33;;;;;;;3.55;2.65;;;18.00;99.90;;;;;;5051413;28;20259;-60
2021/07/07 05:02:00;;;;;;;3.53;2.45;;;18.20;99.90;;;;;;5051039;28;20237;-60
2021/07/07 05:04:26;;;;;;;2.53;2.33;;;18.20;99.90;;;;;;5050665;28;20244;-60
2021/07/07 05:06:54;;;;;;;7.15;3.00;;;18.40;99.90;;;;;;5051280;28;20205;-60
2021/07/07 05:09:21;;;;;;;4.75;3.28;;;18.50;99.90;;;;;;5051193;28;20212;-60
2021/07/07 05:11:48;;;;;;;4.80;4.38;;;18.50;99.90;;;;;;5051444;28;20316;-60
2021/07/07 05:14:15;;;;;;;6.47;3.25;;;18.50;99.90;;;;;;5051321;28;20622;-60
2021/07/07 05:16:41;;;;;;;4.68;3.42;;;18.50;99.90;;;;;;5051510;28;20206;-60
2021/07/07 05:19:08;;;;;;;5.60;4.88;;;18.50;99.90;;;;;;5051186;28;20210;-59
2021/07/07 05:21:37;;;;;;;4.82;3.90;;;18.60;99.90;;;;;;5051257;28;20248;-60
2021/07/07 05:24:06;;;;;;;7.25;3.40;;;18.60;99.90;;;;;;5050983;28;20243;-60
2021/07/07 05:26:34;;;;;;;4.95;3.42;;;18.60;99.90;;;;;;5055237;28;20205;-59
2021/07/07 05:29:00;;;;;;;4.50;3.25;;;18.70;99.90;;;;;;5055031;28;20210;-59
2021/07/07 05:31:27;;;;;;;4.60;3.20;;;18.70;99.90;;;;;;5054468;28;20222;-60
2021/07/07 05:33:54;;;;;;;9.02;3.67;;;18.60;99.90;;;;;;5054665;28;20204;-59
2021/07/07 05:36:20;;;;;;;3.90;3.17;;;18.60;99.90;;;;;;5054541;28;20585;-60
2021/07/07 05:38:47;;;;;;;3.70;3.20;;;18.60;99.90;;;;;;5054735;28;20217;-59
2021/07/07 05:41:15;;;;;;;4.78;2.85;;;18.70;99.90;;;;;;5054762;28;20225;-60
2021/07/07 05:43:42;;;;;;;4.80;3.45;;;18.70;99.90;;;;;;5054460;28;20232;-60
2021/07/07 05:46:08;;;;;;;5.95;3.30;;;18.70;99.90;;;;;;5054405;28;20209;-60
2021/07/07 05:48:35;;;;;;;2.95;2.35;;;18.80;99.90;;;;;;5054313;28;20205;-60
2021/07/07 05:51:04;;;;;;;5.55;2.67;;;18.90;99.90;;;;;;5054616;28;20213;-59
2021/07/07 05:53:30;;;;;;;5.80;2.92;;;19.10;99.90;;;;;;5054449;28;20237;-59
2021/07/07 05:55:57;;;;;;;5.63;3.30;;;19.20;99.90;;;;;;5054293;28;20558;-60
2021/07/07 05:58:25;;;;;;;4.72;3.20;;;19.20;99.90;;;;;;5054139;28;20216;-60
2021/07/07 06:00:52;;;;;;;4.57;3.38;;;19.30;99.90;;;;;;5054268;28;20217;-59
2021/07/07 06:03:19;;;;;;;6.15;3.15;;;19.20;99.90;;;;;;5054560;28;20209;-59
2021/07/07 06:05:45;;;;;;;4.90;3.03;;;19.10;99.90;;;;;;5054337;28;20709;-59
2021/07/07 06:08:12;;;;;;;5.25;2.83;;;18.90;99.90;;;;;;5054103;28;20212;-60
2021/07/07 06:10:40;;;;;;;4.45;2.30;;;19.00;99.90;;;;;;5054140;28;20224;-60
2021/07/07 06:13:07;;;;;;;3.08;2.50;;;19.10;99.90;;;;;;5053764;28;20225;-60
2021/07/07 06:15:36;;;;;;;4.13;2.50;;;19.30;99.90;;;;;;5054142;28;20213;-60
2021/07/07 06:18:04;;;;;;;3.83;1.55;;;19.40;99.90;;;;;;5054083;28;20679;-60
2021/07/07 06:20:31;;;;;;;2.17;1.77;;;19.70;99.90;;;;;;5053932;28;20213;-60
2021/07/07 06:22:57;;;;;;;3.03;1.75;;;19.90;99.90;;;;;;5053792;28;20249;-58
2021/07/07 06:25:24;;;;;;;2.00;1.40;;;20.20;99.90;;;;;;5054346;28;20222;-61
2021/07/07 06:27:52;;;;;;;2.85;1.73;;;20.80;99.90;;;;;;5054273;28;20206;-60
2021/07/07 06:30:21;;;;;;;1.50;1.23;;;21.20;99.90;;;;;;5054315;28;20212;-60
2021/07/07 06:32:50;;;;;;;2.05;1.30;;;21.40;99.90;;;;;;5053892;28;20225;-61
2021/07/07 06:35:17;;;;;;;3.60;1.60;;;21.40;99.90;;;;;;5053686;28;20209;-60
2021/07/07 06:37:45;;;;;;;6.00;1.75;;;21.30;99.90;;;;;;5052805;28;20209;-60
2021/07/07 06:40:14;;;;;;;4.68;1.90;;;21.10;99.90;;;;;;5053548;28;20633;-60
2021/07/07 06:42:40;;;;;;;3.67;1.70;;;20.90;99.90;;;;;;5053522;28;20637;-60
2021/07/07 06:45:09;;;;;;;4.93;1.98;;;21.00;99.90;;;;;;5053373;28;20225;-61
2021/07/07 06:47:36;;;;;;;3.10;1.55;;;21.00;99.90;;;;;;5053815;28;20206;-60
2021/07/07 06:50:06;;;;;;;2.67;1.50;;;21.00;99.90;;;;;;5053547;28;20205;-61
2021/07/07 06:52:32;;;;;;;1.98;1.23;;;20.70;99.90;;;;;;5053175;28;20229;-59
2021/07/07 06:54:59;;;;;;;3.10;1.52;;;20.80;99.90;;;;;;5053487;28;20205;-61
2021/07/07 06:57:26;;;;;;;5.10;1.45;;;20.80;99.90;;;;;;5053470;28;20210;-60
2021/07/07 06:59:53;;;;;;;4.78;3.10;;;21.00;99.90;;;;;;5053154;28;20209;-61
2021/07/07 07:02:19;;;;;;;2.03;1.35;;;21.00;99.90;;;;;;5053033;28;20259;-60
2021/07/07 07:04:46;;;;;;;1.40;1.30;;;21.10;99.90;;;;;;5052900;28;20250;-61
2021/07/07 07:07:14;;;;;;;1.95;1.00;;;21.20;99.90;;;;;;5052842;28;20209;-61
2021/07/07 07:09:40;;;;;;;2.13;1.50;;;21.30;99.90;;;;;;5053155;28;20259;-61
2021/07/07 07:12:07;;;;;;;2.33;1.35;;;21.30;99.90;;;;;;5053203;28;20222;-61
2021/07/07 07:14:34;;;;;;;1.70;1.17;;;21.20;99.90;;;;;;5053211;28;20206;-61
2021/07/07 07:17:01;;;;;;;2.35;1.02;;;21.10;99.90;;;;;;5053138;28;20673;-61
2021/07/07 07:19:27;;;;;;;5.75;2.97;;;21.00;99.90;;;;;;5053799;28;20206;-61
2021/07/07 07:21:54;;;;;;;3.15;1.50;;;21.10;99.90;;;;;;5052907;28;20236;-60
2021/07/07 07:24:22;;;;;;;4.80;1.80;;;21.10;99.90;;;;;;5052756;28;20226;-60
2021/07/07 07:26:49;;;;;;;3.30;1.92;;;21.00;99.90;;;;;;5052632;28;20681;-61
2021/07/07 07:29:15;;;;;;;2.70;1.13;;;21.00;99.90;;;;;;5052800;28;20205;-60
2021/07/07 07:31:42;;;;;;;1.48;1.05;;;21.10;99.90;;;;;;5052735;28;20233;-61
2021/07/07 07:34:09;;;;;;;2.25;1.27;;;21.10;99.90;;;;;;5052493;28;20213;-60
2021/07/07 07:36:35;;;;;;;2.10;1.40;;;21.00;99.90;;;;;;5052875;28;20210;-61
2021/07/07 07:39:04;;;;;;;1.98;1.23;;;21.10;99.90;;;;;;5052854;28;20209;-61
2021/07/07 07:41:38;;;;;;;2.00;1.25;;;21.00;99.90;;;;;;5053043;28;20312;-60
2021/07/07 07:44:07;;;;;;;4.28;1.38;;;21.10;99.90;;;;;;5053082;28;20224;-61
2021/07/07 07:46:33;;;;;;;2.67;1.30;;;21.20;99.90;;;;;;5052840;28;20210;-61
2021/07/07 07:49:01;;;;;;;2.05;1.02;;;21.60;99.90;;;;;;5051818;28;20212;-61
2021/07/07 07:51:29;;;;;;;1.50;1.10;;;21.90;99.90;;;;;;5052712;28;20282;-60
2021/07/07 07:53:56;;;;;;;2.25;1.10;;;22.20;99.90;;;;;;5053272;28;20201;-60
2021/07/07 07:56:23;;;;;;;1.25;1.05;;;22.40;99.90;;;;;;5052695;28;20202;-61
2021/07/07 07:58:51;;;;;;;1.73;1.10;;;22.50;99.90;;;;;;5052408;28;20214;-60
2021/07/07 08:01:17;;;;;;;1.20;1.00;;;22.60;99.90;;;;;;5051835;28;20237;-60
2021/07/07 08:03:44;;;;;;;2.20;1.08;;;22.50;99.90;;;;;;5051876;28;20209;-60
2021/07/07 08:06:11;;;;;;;3.25;1.30;;;22.40;99.90;;;;;;5051937;28;20493;-60
2021/07/07 08:08:38;;;;;;;1.88;1.10;;;22.40;99.90;;;;;;5051849;28;20650;-61
2021/07/07 08:11:05;;;;;;;2.53;1.30;;;22.20;99.90;;;;;;5051779;28;20540;-61
2021/07/07 08:13:31;;;;;;;1.77;1.20;;;22.10;99.90;;;;;;5051493;28;20220;-59
2021/07/07 08:16:00;;;;;;;2.70;1.60;;;22.00;99.90;;;;;;5051650;28;20205;-61
2021/07/07 08:18:26;;;;;;;4.03;1.50;;;21.90;99.90;;;;;;5051708;28;20205;-61
2021/07/07 08:20:53;;;;;;;2.78;1.83;;;21.80;99.90;;;;;;5051486;28;20219;-60
2021/07/07 08:23:20;;;;;;;2.65;2.30;;;21.90;99.90;;;;;;5051777;28;20216;-60
2021/07/07 08:25:47;;;;;;;3.70;1.50;;;21.90;99.90;;;;;;5051220;28;20303;-61
2021/07/07 08:28:14;;;;;;;1.52;1.40;;;21.90;99.90;;;;;;5051286;28;20237;-61
2021/07/07 08:30:41;;;;;;;1.67;1.20;;;22.00;99.90;;;;;;5051151;28;20232;-60
2021/07/07 08:33:09;;;;;;;2.05;1.50;;;22.00;99.90;;;;;;5051374;28;20226;-60
2021/07/07 08:35:37;;;;;;;2.03;1.80;;;22.10;99.90;;;;;;5050922;28;20627;-60
2021/07/07 08:38:04;;;;;;;3.25;1.58;;;22.10;99.90;;;;;;5050880;28;20206;-59
2021/07/07 08:40:31;;;;;;;3.42;1.65;;;22.00;99.90;;;;;;5051075;28;20216;-60
2021/07/07 08:42:58;;;;;;;3.83;1.60;;;21.90;99.90;;;;;;5050822;28;20225;-60
2021/07/07 08:45:25;;;;;;;5.38;1.58;;;21.80;99.90;;;;;;5051509;28;20275;-60
2021/07/07 08:47:52;;;;;;;3.35;1.33;;;21.70;99.90;;;;;;5051342;28;20209;-63
2021/07/07 08:50:22;;;;;;;3.45;1.98;;;21.70;99.90;;;;;;5051159;28;20206;-65
2021/07/07 08:52:49;;;;;;;3.83;1.20;;;21.70;99.90;;;;;;5051689;28;20225;-68
2021/07/07 08:55:17;;;;;;;4.43;1.52;;;21.70;99.90;;;;;;5050952;28;20677;-62
2021/07/07 08:57:44;;;;;;;3.97;2.85;;;21.70;99.90;;;;;;5050794;28;20232;-61
2021/07/07 09:00:14;;;;;;;2.15;1.33;;;21.80;99.90;;;;;;5051064;28;20214;-62
2021/07/07 09:03:08;;;;;;;3.05;2.05;;;22.10;99.90;;;;;;5051282;28;20225;-62
2021/07/07 09:05:49;;;;;;;1.85;1.05;;;22.40;99.90;;;;;;5046907;28;20226;-62
2021/07/07 09:08:26;;;;;;;2.75;1.10;;;22.50;99.90;;;;;;5050994;28;20252;-62
2021/07/07 09:10:54;;;;;;;2.90;1.08;;;22.50;99.90;;;;;;5051038;28;20211;-62
2021/07/07 09:13:22;;;;;;;2.40;0.82;;;22.40;99.90;;;;;;5051042;28;20213;-62
2021/07/07 09:15:49;;;;;;;3.17;1.30;;;22.30;99.90;;;;;;5050992;28;20205;-62
2021/07/07 09:18:20;;;;;;;1.05;0.85;;;22.50;99.90;;;;;;5050650;28;20216;-62
2021/07/07 09:20:48;;;;;;;2.35;1.50;;;22.80;99.90;;;;;;5050507;28;20263;-62
2021/07/07 09:23:17;;;;;;;1.50;1.05;;;23.30;99.90;;;;;;5051261;28;20213;-61
2021/07/07 09:25:58;;;;;;;3.13;1.13;;;23.70;99.90;;;;;;5050445;28;20236;-61
2021/07/07 09:28:26;;;;;;;4.57;1.88;;;24.30;99.90;;;;;;5050759;28;20259;-61
2021/07/07 09:30:54;;;;;;;4.47;1.30;;;24.60;99.90;;;;;;5050517;28;20573;-61
2021/07/07 09:33:21;;;;;;;2.17;1.05;;;24.80;99.90;;;;;;5050482;28;20681;-62
2021/07/07 09:35:50;;;;;;;1.10;0.77;;;25.30;99.90;;;;;;5050816;28;20271;-61
2021/07/07 09:38:18;;;;;;;2.85;1.23;;;25.70;99.90;;;;;;5050774;28;20205;-62
2021/07/07 09:40:45;;;;;;;3.42;1.13;;;26.10;99.90;;;;;;5050436;28;20522;-61
2021/07/07 09:43:14;;;;;;;4.38;1.13;;;26.50;99.90;;;;;;5049167;28;20228;-63
2021/07/07 09:45:45;;;;;;;4.70;2.53;;;26.90;99.90;;;;;;5049997;28;20595;-62
2021/07/07 09:48:13;;;;;;;3.10;1.48;;;27.10;99.90;;;;;;5050508;28;20232;-62
2021/07/07 09:50:42;;;;;;;5.13;1.90;;;27.30;99.90;;;;;;5050732;28;20500;-62
2021/07/07 09:53:12;;;;;;;2.65;1.20;;;27.50;99.90;;;;;;5050956;28;20230;-62
2021/07/07 09:55:39;;;;;;;7.80;3.30;;;27.50;99.90;;;;;;5050431;28;20316;-63
2021/07/07 09:58:06;;;;;;;2.67;1.65;;;27.30;99.90;;;;;;5050022;28;20251;-63
2021/07/07 10:00:37;;;;;;;3.83;1.10;;;27.00;99.90;;;;;;5050280;28;20666;-59
2021/07/07 10:03:05;;;;;;;1.90;0.90;;;26.50;99.90;;;;;;5050347;28;20225;-58
2021/07/07 10:05:38;;;;;;;1.90;1.00;;;26.10;99.90;;;;;;5049975;28;20225;-59
2021/07/07 10:08:05;;;;;;;1.40;0.98;;;25.70;99.90;;;;;;5050357;28;20202;-58
2021/07/07 10:10:34;;;;;;;5.07;1.30;;;25.60;99.90;;;;;;5050872;28;20206;-58
2021/07/07 10:13:01;;;;;;;2.88;1.08;;;25.50;99.90;;;;;;5053372;28;20729;-57
2021/07/07 10:15:28;;;;;;;4.18;1.25;;;25.50;99.90;;;;;;5054015;28;20213;-58
2021/07/07 10:17:55;;;;;;;2.83;1.20;;;25.40;99.90;;;;;;5054097;28;20635;-58
2021/07/07 10:20:22;;;;;;;2.53;1.70;;;25.40;99.90;;;;;;5054011;28;20578;-58
2021/07/07 10:22:49;;;;;;;4.05;1.00;;;25.30;99.90;;;;;;5053432;28;20280;-58
2021/07/07 10:25:19;;;;;;;2.97;1.20;;;25.20;99.90;;;;;;5053458;28;20561;-59
2021/07/07 10:27:47;;;;;;;2.80;1.45;;;25.10;99.90;;;;;;5053979;28;20209;-58
2021/07/07 10:30:15;;;;;;;4.03;1.20;;;25.10;99.90;;;;;;5053836;28;20213;-59
2021/07/07 10:33:02;;;;;;;3.08;0.95;;;25.20;99.90;;;;;;5053454;28;20888;-58
2021/07/07 10:35:28;;;;;;;4.38;0.95;;;25.30;99.90;;;;;;5053465;28;20566;-58
2021/07/07 10:37:57;;;;;;;6.88;1.63;;;25.40;99.90;;;;;;5053353;28;20636;-58
2021/07/07 10:40:26;;;;;;;3.67;1.20;;;25.60;99.90;;;;;;5053600;28;20209;-58
2021/07/07 10:42:55;;;;;;;1.98;1.13;;;25.90;99.90;;;;;;5053505;28;20279;-58
2021/07/07 10:45:32;;;;;;;3.15;1.25;;;25.90;99.90;;;;;;5052945;28;20600;-58
2021/07/07 10:48:23;;;;;;;3.08;1.30;;;26.00;99.90;;;;;;5053316;28;20217;-58
2021/07/07 10:50:50;;;;;;;1.98;0.90;;;26.10;99.90;;;;;;5053546;28;20889;-57
2021/07/07 10:53:29;;;;;;;2.15;0.82;;;26.10;99.90;;;;;;5053434;28;20205;-58
2021/07/07 10:55:56;;;;;;;3.17;1.27;;;26.20;99.90;;;;;;5053270;28;20685;-58
2021/07/07 10:58:27;;;;;;;4.90;0.98;;;26.70;99.90;;;;;;5053292;28;20650;-57
2021/07/07 11:00:53;;;;;;;2.58;0.88;;;27.00;99.90;;;;;;5052979;28;20205;-57
2021/07/07 11:03:39;;;;;;;2.60;0.85;;;27.10;99.90;;;;;;5053182;28;20213;-58
2021/07/07 11:06:28;;;;;;;2.95;0.80;;;27.30;99.90;;;;;;5052877;28;20251;-57
2021/07/07 11:09:16;;;;;;;1.38;0.73;;;27.50;99.90;;;;;;5052741;28;20206;-58
2021/07/07 11:11:46;;;;;;;1.67;0.88;;;27.60;99.90;;;;;;5052906;28;20285;-58
2021/07/07 11:14:18;;;;;;;2.67;0.90;;;27.50;99.90;;;;;;5052635;28;20205;-59
2021/07/07 11:16:47;;;;;;;3.08;0.90;;;27.60;99.90;;;;;;5052850;28;20201;-59
2021/07/07 11:19:40;;;;;;;2.95;1.13;;;27.90;99.90;;;;;;5052624;28;20202;-59
2021/07/07 11:22:07;;;;;;;3.72;1.73;;;28.30;99.90;;;;;;5052304;28;20229;-58
2021/07/07 11:24:34;;;;;;;3.22;1.15;;;28.50;99.90;;;;;;5052239;28;20579;-59
2021/07/07 11:27:03;;;;;;;3.22;1.20;;;28.30;99.50;;;;;;5052519;28;20236;-59
2021/07/07 11:29:32;;;;;;;1.73;1.33;;;28.40;99.90;;;;;;5052265;28;20202;-59
2021/07/07 11:31:58;;;;;;;4.60;1.08;;;28.40;99.90;;;;;;5052417;28;20222;-58
2021/07/07 11:34:25;;;;;;;1.30;0.90;;;28.30;99.90;;;;;;5052675;28;20201;-59
2021/07/07 11:36:52;;;;;;;3.70;0.88;;;28.40;99.80;;;;;;5052747;28;20206;-59
2021/07/07 11:39:24;;;;;;;1.08;0.73;;;28.60;99.90;;;;;;5052354;28;20237;-58
2021/07/07 11:42:04;;;;;;;1.85;1.00;;;28.40;99.90;;;;;;5052146;28;20300;-58
2021/07/07 11:44:42;;;;;;;4.30;2.85;;;28.40;99.60;;;;;;5052228;28;20209;-59
2021/07/07 11:47:10;;;;;;;3.30;1.58;;;28.30;99.90;;;;;;5052500;28;20229;-58
2021/07/07 11:49:37;;;;;;;5.20;1.40;;;28.20;99.90;;;;;;5052076;28;20581;-58
2021/07/07 11:52:05;;;;;;;1.80;0.98;;;28.20;99.90;;;;;;5051957;28;20229;-59
2021/07/07 11:54:46;;;;;;;1.83;1.17;;;28.30;99.90;;;;;;5052187;28;20214;-60
2021/07/07 11:57:13;;;;;;;2.25;0.77;;;29.20;99.90;;;;;;5052837;28;20305;-59
2021/07/07 11:59:41;;;;;;;2.90;0.80;;;28.70;99.80;;;;;;5051918;28;20201;-59
2021/07/07 12:02:08;;;;;;;1.75;0.77;;;28.90;99.00;;;;;;5051950;28;20230;-59
2021/07/07 12:04:35;;;;;;;1.50;0.70;;;29.10;98.30;;;;;;5051679;28;20561;-60
2021/07/07 12:07:01;;;;;;;1.15;0.50;;;29.20;97.60;;;;;;5051809;28;20221;-59
2021/07/07 12:09:31;;;;;;;1.23;0.57;;;29.40;96.80;;;;;;5051495;28;20625;-65
2021/07/07 12:11:59;;;;;;;2.03;0.70;;;29.30;96.40;;;;;;5052016;28;20240;-59
2021/07/07 12:14:29;;;;;;;1.65;1.10;;;29.40;95.70;;;;;;5051334;28;20708;-60
2021/07/07 12:16:58;;;;;;;0.73;0.60;;;29.30;96.10;;;;;;5051723;28;20741;-60
2021/07/07 12:19:26;;;;;;;1.73;0.60;;;29.40;95.50;;;;;;5051541;28;20232;-58
2021/07/07 12:21:55;;;;;;;1.40;0.47;;;29.40;95.20;;;;;;5051460;28;20675;-58
2021/07/07 12:24:23;;;;;;;2.83;0.70;;;29.60;95.10;;;;;;5051874;28;20426;-59
2021/07/07 12:26:51;;;;;;;0.90;0.70;;;29.50;95.10;;;;;;5051764;28;20855;-59
2021/07/07 12:29:21;;;;;;;3.40;2.80;;;29.40;95.20;;;;;;5051631;28;20209;-59
2021/07/07 12:31:49;;;;;;;4.75;3.05;;;29.20;95.50;;;;;;5051483;28;20283;-58
2021/07/07 12:34:24;;;;;;;3.72;0.75;;;29.40;95.00;;;;;;5050470;28;20210;-59
2021/07/07 12:36:54;;;;;;;1.05;0.63;;;29.40;94.50;;;;;;5051728;28;20197;-58
2021/07/07 12:39:23;;;;;;;2.08;0.93;;;29.20;94.30;;;;;;5051550;28;20216;-59
2021/07/07 12:41:55;;;;;;;2.40;0.60;;;29.10;95.10;;;;;;5051139;28;20275;-58
2021/07/07 12:44:30;;;;;;;1.50;1.17;;;29.30;94.40;;;;;;5050985;28;20209;-59
2021/07/07 12:47:00;;;;;;;0.63;0.63;;;29.50;94.30;;;;;;5050988;28;20231;-59
2021/07/07 12:49:45;;;;;;;1.25;0.70;;;29.80;93.80;;;;;;5051109;28;20625;-59
2021/07/07 12:52:17;;;;;;;1.65;0.60;;;30.10;93.40;;;;;;5051425;28;20320;-58